sensor_id;sensor_type;location;lat;lon;timestamp;temperature;humidity
47576;DHT22;33304;52.456;13.328;2024-02-15T00:01:30;9.20;99.90
47576;DHT22;33304;52.456;13.328;2024-02-15T00:03:57;9.30;99.90
47576;DHT22;33304;52.456;13.328;2024-02-15T00:06:25;9.30;99.90
47576;DHT22;33304;52.456;13.328;2024-02-15T00:08:52;9.30;99.90
47576;DHT22;33304;52.456;13.328;2024-02-15T00:11:19;9.20;99.90
47576;DHT22;33304;52.456;13.328;2024-02-15T00:13:46;9.20;99.90
47576;DHT22;33304;52.456;13.328;2024-02-15T00:16:14;9.20;99.90
47576;DHT22;33304;52.456;13.328;2024-02-15T00:18:42;9.20;99.90
47576;DHT22;33304;52.456;13.328;2024-02-15T00:21:09;9.30;99.90
47576;DHT22;33304;52.456;13.328;2024-02-15T00:23:37;9.20;99.90
47576;DHT22;33304;52.456;13.328;2024-02-15T00:26:05;9.30;99.90
47576;DHT22;33304;52.456;13.328;2024-02-15T00:28:32;9.30;99.90
47576;DHT22;33304;52.456;13.328;2024-02-15T00:31:00;9.30;99.90
47576;DHT22;33304;52.456;13.328;2024-02-15T00:33:28;9.30;99.90
47576;DHT22;33304;52.456;13.328;2024-02-15T00:35:55;9.30;99.90
47576;DHT22;33304;52.456;13.328;2024-02-15T00:38:23;9.30;99.90
47576;DHT22;33304;52.456;13.328;2024-02-15T00:40:50;9.30;99.90
47576;DHT22;33304;52.456;13.328;2024-02-15T00:43:17;9.40;99.90
47576;DHT22;33304;52.456;13.328;2024-02-15T00:45:44;9.30;99.90
47576;DHT22;33304;52.456;13.328;2024-02-15T00:48:11;9.30;99.90
47576;DHT22;33304;52.456;13.328;2024-02-15T00:50:39;9.30;99.90
47576;DHT22;33304;52.456;13.328;2024-02-15T00:53:06;9.30;99.90
47576;DHT22;33304;52.456;13.328;2024-02-15T00:55:33;9.30;99.90
47576;DHT22;33304;52.456;13.328;2024-02-15T00:58:00;9.30;99.90
47576;DHT22;33304;52.456;13.328;2024-02-15T01:00:27;9.30;99.90
47576;DHT22;33304;52.456;13.328;2024-02-15T01:02:55;9.40;99.90
47576;DHT22;33304;52.456;13.328;2024-02-15T01:05:22;9.30;99.90
47576;DHT22;33304;52.456;13.328;2024-02-15T01:07:51;9.40;99.90
47576;DHT22;33304;52.456;13.328;2024-02-15T01:10:18;9.40;99.90
47576;DHT22;33304;52.456;13.328;2024-02-15T01:12:46;9.30;99.90
47576;DHT22;33304;52.456;13.328;2024-02-15T01:15:13;9.30;99.90
47576;DHT22;33304;52.456;13.328;2024-02-15T01:17:41;9.30;99.90
47576;DHT22;33304;52.456;13.328;2024-02-15T01:20:09;9.30;99.90
47576;DHT22;33304;52.456;13.328;2024-02-15T01:22:37;9.30;99.90
47576;DHT22;33304;52.456;13.328;2024-02-15T01:25:06;9.30;99.90
47576;DHT22;33304;52.456;13.328;2024-02-15T01:27:33;9.30;99.90
47576;DHT22;33304;52.456;13.328;2024-02-15T01:30:00;9.30;99.90
47576;DHT22;33304;52.456;13.328;2024-02-15T01:32:27;9.20;99.90
47576;DHT22;33304;52.456;13.328;2024-02-15T01:34:54;9.30;99.90
47576;DHT22;33304;52.456;13.328;2024-02-15T01:37:21;9.20;99.90
47576;DHT22;33304;52.456;13.328;2024-02-15T01:39:50;9.20;99.90
47576;DHT22;33304;52.456;13.328;2024-02-15T01:42:18;9.20;99.90
47576;DHT22;33304;52.456;13.328;2024-02-15T01:44:45;9.20;99.90
47576;DHT22;33304;52.456;13.328;2024-02-15T01:47:16;9.20;99.90
47576;DHT22;33304;52.456;13.328;2024-02-15T01:49:45;9.20;99.90
47576;DHT22;33304;52.456;13.328;2024-02-15T01:52:15;9.30;99.90
47576;DHT22;33304;52.456;13.328;2024-02-15T01:54:43;9.30;99.90
47576;DHT22;33304;52.456;13.328;2024-02-15T01:57:11;9.20;99.90
47576;DHT22;33304;52.456;13.328;2024-02-15T01:59:40;9.30;99.90
47576;DHT22;33304;52.456;13.328;2024-02-15T02:02:10;9.20;99.90
47576;DHT22;33304;52.456;13.328;2024-02-15T02:04:40;9.30;99.90
47576;DHT22;33304;52.456;13.328;2024-02-15T02:07:08;9.30;99.90
47576;DHT22;33304;52.456;13.328;2024-02-15T02:09:35;9.30;99.90
47576;DHT22;33304;52.456;13.328;2024-02-15T02:12:02;9.30;99.90
47576;DHT22;33304;52.456;13.328;2024-02-15T02:14:30;9.30;99.90
47576;DHT22;33304;52.456;13.328;2024-02-15T02:17:10;9.30;99.90
47576;DHT22;33304;52.456;13.328;2024-02-15T02:19:37;9.30;99.90
47576;DHT22;33304;52.456;13.328;2024-02-15T02:22:05;9.30;99.90
47576;DHT22;33304;52.456;13.328;2024-02-15T02:24:40;9.30;99.90
47576;DHT22;33304;52.456;13.328;2024-02-15T02:27:09;9.30;99.90
47576;DHT22;33304;52.456;13.328;2024-02-15T02:29:42;9.30;99.90
47576;DHT22;33304;52.456;13.328;2024-02-15T02:32:11;9.40;99.90
47576;DHT22;33304;52.456;13.328;2024-02-15T02:34:38;9.40;99.90
47576;DHT22;33304;52.456;13.328;2024-02-15T02:37:06;9.30;99.90
47576;DHT22;33304;52.456;13.328;2024-02-15T02:39:34;9.30;99.90
47576;DHT22;33304;52.456;13.328;2024-02-15T02:42:01;9.40;99.90
47576;DHT22;33304;52.456;13.328;2024-02-15T02:44:30;9.30;99.90
47576;DHT22;33304;52.456;13.328;2024-02-15T02:46:57;9.40;99.90
47576;DHT22;33304;52.456;13.328;2024-02-15T02:49:24;9.40;99.90
47576;DHT22;33304;52.456;13.328;2024-02-15T02:51:51;9.40;99.90
47576;DHT22;33304;52.456;13.328;2024-02-15T02:54:18;9.50;99.90
47576;DHT22;33304;52.456;13.328;2024-02-15T02:56:45;9.40;99.90
47576;DHT22;33304;52.456;13.328;2024-02-15T02:59:12;9.40;99.90
47576;DHT22;33304;52.456;13.328;2024-02-15T03:01:40;9.40;99.90
47576;DHT22;33304;52.456;13.328;2024-02-15T03:04:08;9.40;99.90
47576;DHT22;33304;52.456;13.328;2024-02-15T03:06:38;9.40;99.90
47576;DHT22;33304;52.456;13.328;2024-02-15T03:09:08;9.50;99.90
47576;DHT22;33304;52.456;13.328;2024-02-15T03:11:35;9.50;99.90
47576;DHT22;33304;52.456;13.328;2024-02-15T03:14:03;9.50;99.90
47576;DHT22;33304;52.456;13.328;2024-02-15T03:16:31;9.50;99.90
47576;DHT22;33304;52.456;13.328;2024-02-15T03:18:59;9.40;99.90
47576;DHT22;33304;52.456;13.328;2024-02-15T03:21:28;9.40;99.90
47576;DHT22;33304;52.456;13.328;2024-02-15T03:23:55;9.50;99.90
47576;DHT22;33304;52.456;13.328;2024-02-15T03:26:29;9.50;99.90
47576;DHT22;33304;52.456;13.328;2024-02-15T03:28:57;9.40;99.90
47576;DHT22;33304;52.456;13.328;2024-02-15T03:31:24;9.40;99.90
47576;DHT22;33304;52.456;13.328;2024-02-15T03:33:51;9.40;99.90
47576;DHT22;33304;52.456;13.328;2024-02-15T03:36:21;9.40;99.90
47576;DHT22;33304;52.456;13.328;2024-02-15T03:38:49;9.40;99.90
47576;DHT22;33304;52.456;13.328;2024-02-15T03:41:16;9.40;99.90
47576;DHT22;33304;52.456;13.328;2024-02-15T03:43:43;9.40;99.90
47576;DHT22;33304;52.456;13.328;2024-02-15T03:46:10;9.40;99.90
47576;DHT22;33304;52.456;13.328;2024-02-15T03:48:38;9.40;99.90
47576;DHT22;33304;52.456;13.328;2024-02-15T03:51:07;9.40;99.90
47576;DHT22;33304;52.456;13.328;2024-02-15T03:53:36;9.40;99.90
47576;DHT22;33304;52.456;13.328;2024-02-15T03:56:04;9.40;99.90
47576;DHT22;33304;52.456;13.328;2024-02-15T03:58:31;9.50;99.90
47576;DHT22;33304;52.456;13.328;2024-02-15T04:00:59;9.40;99.90
47576;DHT22;33304;52.456;13.328;2024-02-15T04:03:26;9.50;99.90
47576;DHT22;33304;52.456;13.328;2024-02-15T04:05:53;9.40;99.90
47576;DHT22;33304;52.456;13.328;2024-02-15T04:08:20;9.50;99.90
47576;DHT22;33304;52.456;13.328;2024-02-15T04:10:49;9.50;99.90
47576;DHT22;33304;52.456;13.328;2024-02-15T04:13:16;9.50;99.90
47576;DHT22;33304;52.456;13.328;2024-02-15T04:15:43;9.60;99.90
47576;DHT22;33304;52.456;13.328;2024-02-15T04:18:13;9.70;99.90
47576;DHT22;33304;52.456;13.328;2024-02-15T04:20:40;9.60;99.90
47576;DHT22;33304;52.456;13.328;2024-02-15T04:23:10;9.60;99.90
47576;DHT22;33304;52.456;13.328;2024-02-15T04:25:37;9.50;99.90
47576;DHT22;33304;52.456;13.328;2024-02-15T04:28:08;9.50;99.90
47576;DHT22;33304;52.456;13.328;2024-02-15T04:30:35;9.60;99.90
47576;DHT22;33304;52.456;13.328;2024-02-15T04:33:04;9.60;99.90
47576;DHT22;33304;52.456;13.328;2024-02-15T04:35:32;9.50;99.90
47576;DHT22;33304;52.456;13.328;2024-02-15T04:37:59;9.60;99.90
47576;DHT22;33304;52.456;13.328;2024-02-15T04:40:26;9.60;99.90
47576;DHT22;33304;52.456;13.328;2024-02-15T04:42:53;9.60;99.90
47576;DHT22;33304;52.456;13.328;2024-02-15T04:45:21;9.60;99.90
47576;DHT22;33304;52.456;13.328;2024-02-15T04:47:49;9.60;99.90
47576;DHT22;33304;52.456;13.328;2024-02-15T04:50:18;9.60;99.90
47576;DHT22;33304;52.456;13.328;2024-02-15T04:52:46;9.60;99.90
47576;DHT22;33304;52.456;13.328;2024-02-15T04:55:15;9.60;99.90
47576;DHT22;33304;52.456;13.328;2024-02-15T04:57:43;9.60;99.90
47576;DHT22;33304;52.456;13.328;2024-02-15T05:00:13;9.70;99.90
47576;DHT22;33304;52.456;13.328;2024-02-15T05:02:42;9.60;99.90
47576;DHT22;33304;52.456;13.328;2024-02-15T05:05:10;9.60;99.90
47576;DHT22;33304;52.456;13.328;2024-02-15T05:07:38;9.70;99.90
47576;DHT22;33304;52.456;13.328;2024-02-15T05:10:07;9.60;99.90
47576;DHT22;33304;52.456;13.328;2024-02-15T05:12:36;9.60;99.90
47576;DHT22;33304;52.456;13.328;2024-02-15T05:15:04;9.60;99.90
47576;DHT22;33304;52.456;13.328;2024-02-15T05:17:37;9.70;99.90
47576;DHT22;33304;52.456;13.328;2024-02-15T05:20:09;9.60;99.90
47576;DHT22;33304;52.456;13.328;2024-02-15T05:22:39;9.70;99.90
47576;DHT22;33304;52.456;13.328;2024-02-15T05:25:09;9.60;99.90
47576;DHT22;33304;52.456;13.328;2024-02-15T05:27:38;9.60;99.90
47576;DHT22;33304;52.456;13.328;2024-02-15T05:30:06;9.60;99.90
47576;DHT22;33304;52.456;13.328;2024-02-15T05:32:34;9.70;99.90
47576;DHT22;33304;52.456;13.328;2024-02-15T05:35:09;9.80;99.90
47576;DHT22;33304;52.456;13.328;2024-02-15T05:37:37;9.70;99.90
47576;DHT22;33304;52.456;13.328;2024-02-15T05:40:05;9.70;99.90
47576;DHT22;33304;52.456;13.328;2024-02-15T05:42:33;9.70;99.90
47576;DHT22;33304;52.456;13.328;2024-02-15T05:45:27;9.60;99.90
47576;DHT22;33304;52.456;13.328;2024-02-15T05:47:55;9.70;99.90
47576;DHT22;33304;52.456;13.328;2024-02-15T05:50:24;9.60;99.90
47576;DHT22;33304;52.456;13.328;2024-02-15T05:52:53;9.60;99.90
47576;DHT22;33304;52.456;13.328;2024-02-15T05:55:20;9.60;99.90
47576;DHT22;33304;52.456;13.328;2024-02-15T05:57:48;9.70;99.90
47576;DHT22;33304;52.456;13.328;2024-02-15T06:00:16;9.70;99.90
47576;DHT22;33304;52.456;13.328;2024-02-15T06:02:44;9.70;99.90
47576;DHT22;33304;52.456;13.328;2024-02-15T06:05:12;9.70;99.90
47576;DHT22;33304;52.456;13.328;2024-02-15T06:07:43;9.80;99.90
47576;DHT22;33304;52.456;13.328;2024-02-15T06:10:11;9.70;99.90
47576;DHT22;33304;52.456;13.328;2024-02-15T06:12:39;9.70;99.90
47576;DHT22;33304;52.456;13.328;2024-02-15T06:15:07;9.70;99.90
47576;DHT22;33304;52.456;13.328;2024-02-15T06:17:41;9.80;99.90
47576;DHT22;33304;52.456;13.328;2024-02-15T06:20:11;9.90;99.90
47576;DHT22;33304;52.456;13.328;2024-02-15T06:22:40;9.90;99.90
47576;DHT22;33304;52.456;13.328;2024-02-15T06:25:10;9.80;99.90
47576;DHT22;33304;52.456;13.328;2024-02-15T06:27:37;9.80;99.90
47576;DHT22;33304;52.456;13.328;2024-02-15T06:30:07;9.80;99.90
47576;DHT22;33304;52.456;13.328;2024-02-15T06:32:52;9.70;99.90
47576;DHT22;33304;52.456;13.328;2024-02-15T06:35:37;9.70;99.90
47576;DHT22;33304;52.456;13.328;2024-02-15T06:38:23;9.80;99.90
47576;DHT22;33304;52.456;13.328;2024-02-15T06:41:09;9.80;99.90
47576;DHT22;33304;52.456;13.328;2024-02-15T06:43:36;9.90;99.90
47576;DHT22;33304;52.456;13.328;2024-02-15T06:46:06;9.90;99.90
47576;DHT22;33304;52.456;13.328;2024-02-15T06:48:34;10.00;99.90
47576;DHT22;33304;52.456;13.328;2024-02-15T06:51:01;9.90;99.90
47576;DHT22;33304;52.456;13.328;2024-02-15T06:53:29;10.00;99.90
47576;DHT22;33304;52.456;13.328;2024-02-15T06:55:56;9.90;99.90
47576;DHT22;33304;52.456;13.328;2024-02-15T06:58:25;9.90;99.90
47576;DHT22;33304;52.456;13.328;2024-02-15T07:00:53;10.00;99.90
47576;DHT22;33304;52.456;13.328;2024-02-15T07:03:20;9.90;99.90
47576;DHT22;33304;52.456;13.328;2024-02-15T07:05:48;9.90;99.90
47576;DHT22;33304;52.456;13.328;2024-02-15T07:08:15;9.90;99.90
47576;DHT22;33304;52.456;13.328;2024-02-15T07:10:43;9.90;99.90
47576;DHT22;33304;52.456;13.328;2024-02-15T07:13:10;10.10;99.90
47576;DHT22;33304;52.456;13.328;2024-02-15T07:15:38;10.10;99.90
47576;DHT22;33304;52.456;13.328;2024-02-15T07:18:06;10.10;99.90
47576;DHT22;33304;52.456;13.328;2024-02-15T07:20:33;10.10;99.90
47576;DHT22;33304;52.456;13.328;2024-02-15T07:23:00;10.00;99.90
47576;DHT22;33304;52.456;13.328;2024-02-15T07:25:27;10.00;99.90
47576;DHT22;33304;52.456;13.328;2024-02-15T07:27:54;10.00;99.90
47576;DHT22;33304;52.456;13.328;2024-02-15T07:30:22;10.10;99.90
47576;DHT22;33304;52.456;13.328;2024-02-15T07:32:52;10.20;99.90
47576;DHT22;33304;52.456;13.328;2024-02-15T07:35:19;10.20;99.90
47576;DHT22;33304;52.456;13.328;2024-02-15T07:37:55;10.10;99.90
47576;DHT22;33304;52.456;13.328;2024-02-15T07:40:24;10.20;99.90
47576;DHT22;33304;52.456;13.328;2024-02-15T07:42:56;10.10;99.90
47576;DHT22;33304;52.456;13.328;2024-02-15T07:45:24;10.20;99.90
47576;DHT22;33304;52.456;13.328;2024-02-15T07:47:53;10.20;99.90
47576;DHT22;33304;52.456;13.328;2024-02-15T07:50:20;10.20;99.90
47576;DHT22;33304;52.456;13.328;2024-02-15T07:52:49;10.20;99.90
47576;DHT22;33304;52.456;13.328;2024-02-15T07:55:17;10.20;99.90
47576;DHT22;33304;52.456;13.328;2024-02-15T07:57:45;10.30;99.90
47576;DHT22;33304;52.456;13.328;2024-02-15T08:00:14;10.20;99.90
47576;DHT22;33304;52.456;13.328;2024-02-15T08:02:43;10.40;99.90
47576;DHT22;33304;52.456;13.328;2024-02-15T08:05:12;10.40;99.90
47576;DHT22;33304;52.456;13.328;2024-02-15T08:07:42;10.40;99.90
47576;DHT22;33304;52.456;13.328;2024-02-15T08:10:10;10.40;99.90
47576;DHT22;33304;52.456;13.328;2024-02-15T08:12:40;10.40;99.90
47576;DHT22;33304;52.456;13.328;2024-02-15T08:15:08;10.40;99.90
47576;DHT22;33304;52.456;13.328;2024-02-15T08:17:39;10.50;99.90
47576;DHT22;33304;52.456;13.328;2024-02-15T08:20:08;10.50;99.90
47576;DHT22;33304;52.456;13.328;2024-02-15T08:22:38;10.60;99.90
47576;DHT22;33304;52.456;13.328;2024-02-15T08:25:07;10.70;99.90
47576;DHT22;33304;52.456;13.328;2024-02-15T08:27:37;10.80;99.90
47576;DHT22;33304;52.456;13.328;2024-02-15T08:30:08;10.80;99.90
47576;DHT22;33304;52.456;13.328;2024-02-15T08:32:37;10.80;99.90
47576;DHT22;33304;52.456;13.328;2024-02-15T08:35:06;10.70;99.90
47576;DHT22;33304;52.456;13.328;2024-02-15T08:37:34;10.70;99.90
47576;DHT22;33304;52.456;13.328;2024-02-15T08:40:03;10.70;99.90
47576;DHT22;33304;52.456;13.328;2024-02-15T08:42:30;10.70;99.90
47576;DHT22;33304;52.456;13.328;2024-02-15T08:44:57;10.80;99.90
47576;DHT22;33304;52.456;13.328;2024-02-15T08:47:25;10.80;99.90
47576;DHT22;33304;52.456;13.328;2024-02-15T08:49:52;10.70;99.90
47576;DHT22;33304;52.456;13.328;2024-02-15T08:52:20;10.70;99.90
47576;DHT22;33304;52.456;13.328;2024-02-15T08:54:47;10.80;99.90
47576;DHT22;33304;52.456;13.328;2024-02-15T08:57:15;10.80;99.90
47576;DHT22;33304;52.456;13.328;2024-02-15T08:59:45;10.80;99.90
47576;DHT22;33304;52.456;13.328;2024-02-15T09:02:12;10.90;99.90
47576;DHT22;33304;52.456;13.328;2024-02-15T09:04:40;11.00;99.90
47576;DHT22;33304;52.456;13.328;2024-02-15T09:07:07;11.00;99.90
47576;DHT22;33304;52.456;13.328;2024-02-15T09:09:35;11.00;99.90
47576;DHT22;33304;52.456;13.328;2024-02-15T09:12:03;11.20;99.90
47576;DHT22;33304;52.456;13.328;2024-02-15T09:14:33;11.20;99.90
47576;DHT22;33304;52.456;13.328;2024-02-15T09:17:00;11.20;99.90
47576;DHT22;33304;52.456;13.328;2024-02-15T09:19:33;11.40;99.90
47576;DHT22;33304;52.456;13.328;2024-02-15T09:22:00;11.30;99.90
47576;DHT22;33304;52.456;13.328;2024-02-15T09:24:27;11.40;99.90
47576;DHT22;33304;52.456;13.328;2024-02-15T09:26:54;11.30;99.90
47576;DHT22;33304;52.456;13.328;2024-02-15T09:29:22;11.30;99.90
47576;DHT22;33304;52.456;13.328;2024-02-15T09:31:49;11.30;99.90
47576;DHT22;33304;52.456;13.328;2024-02-15T09:34:18;11.20;99.90
47576;DHT22;33304;52.456;13.328;2024-02-15T09:36:45;11.30;99.90
47576;DHT22;33304;52.456;13.328;2024-02-15T09:39:13;11.40;99.90
47576;DHT22;33304;52.456;13.328;2024-02-15T09:41:40;11.30;99.90
47576;DHT22;33304;52.456;13.328;2024-02-15T09:44:09;11.40;99.90
47576;DHT22;33304;52.456;13.328;2024-02-15T09:46:38;11.30;99.90
47576;DHT22;33304;52.456;13.328;2024-02-15T09:49:10;11.20;99.90
47576;DHT22;33304;52.456;13.328;2024-02-15T09:51:38;11.30;99.90
47576;DHT22;33304;52.456;13.328;2024-02-15T09:54:06;11.30;99.90
47576;DHT22;33304;52.456;13.328;2024-02-15T09:56:35;11.40;99.90
47576;DHT22;33304;52.456;13.328;2024-02-15T09:59:03;11.40;99.90
47576;DHT22;33304;52.456;13.328;2024-02-15T10:01:32;11.40;99.90
47576;DHT22;33304;52.456;13.328;2024-02-15T10:04:04;11.50;99.90
47576;DHT22;33304;52.456;13.328;2024-02-15T10:06:34;11.50;99.90
47576;DHT22;33304;52.456;13.328;2024-02-15T10:09:25;11.50;99.90
47576;DHT22;33304;52.456;13.328;2024-02-15T10:11:54;11.60;99.90
47576;DHT22;33304;52.456;13.328;2024-02-15T10:14:23;11.60;99.90
47576;DHT22;33304;52.456;13.328;2024-02-15T10:16:50;11.70;99.90
47576;DHT22;33304;52.456;13.328;2024-02-15T10:19:18;11.70;99.90
47576;DHT22;33304;52.456;13.328;2024-02-15T10:21:48;11.70;99.90
47576;DHT22;33304;52.456;13.328;2024-02-15T10:24:18;11.90;99.90
47576;DHT22;33304;52.456;13.328;2024-02-15T10:26:48;11.90;99.90
47576;DHT22;33304;52.456;13.328;2024-02-15T10:29:15;11.90;99.90
47576;DHT22;33304;52.456;13.328;2024-02-15T10:31:53;11.90;99.90
47576;DHT22;33304;52.456;13.328;2024-02-15T10:34:20;11.90;99.90
47576;DHT22;33304;52.456;13.328;2024-02-15T10:36:49;12.00;99.90
47576;DHT22;33304;52.456;13.328;2024-02-15T10:39:17;12.20;99.90
47576;DHT22;33304;52.456;13.328;2024-02-15T10:41:46;12.20;99.90
47576;DHT22;33304;52.456;13.328;2024-02-15T10:44:17;12.20;99.90
47576;DHT22;33304;52.456;13.328;2024-02-15T10:46:46;12.30;99.90
47576;DHT22;33304;52.456;13.328;2024-02-15T10:49:18;12.30;99.90
47576;DHT22;33304;52.456;13.328;2024-02-15T10:51:52;12.50;99.90
47576;DHT22;33304;52.456;13.328;2024-02-15T10:54:41;12.40;99.90
47576;DHT22;33304;52.456;13.328;2024-02-15T10:57:10;12.40;99.90
47576;DHT22;33304;52.456;13.328;2024-02-15T10:59:38;12.40;99.90
47576;DHT22;33304;52.456;13.328;2024-02-15T11:02:26;12.40;99.90
47576;DHT22;33304;52.456;13.328;2024-02-15T11:04:58;12.40;99.90
47576;DHT22;33304;52.456;13.328;2024-02-15T11:07:31;12.50;99.90
47576;DHT22;33304;52.456;13.328;2024-02-15T11:09:58;12.50;99.90
47576;DHT22;33304;52.456;13.328;2024-02-15T11:12:27;12.60;99.90
47576;DHT22;33304;52.456;13.328;2024-02-15T11:14:55;12.50;99.90
47576;DHT22;33304;52.456;13.328;2024-02-15T11:17:47;12.50;99.90
47576;DHT22;33304;52.456;13.328;2024-02-15T11:20:49;12.50;99.90
47576;DHT22;33304;52.456;13.328;2024-02-15T11:23:26;12.70;99.90
47576;DHT22;33304;52.456;13.328;2024-02-15T11:25:54;12.60;99.90
47576;DHT22;33304;52.456;13.328;2024-02-15T11:28:43;12.70;99.90
47576;DHT22;33304;52.456;13.328;2024-02-15T11:31:53;12.90;99.90
47576;DHT22;33304;52.456;13.328;2024-02-15T11:34:43;12.90;99.90
47576;DHT22;33304;52.456;13.328;2024-02-15T11:40:15;12.90;99.90
47576;DHT22;33304;52.456;13.328;2024-02-15T11:42:43;12.90;99.90
47576;DHT22;33304;52.456;13.328;2024-02-15T11:45:10;12.90;99.90
47576;DHT22;33304;52.456;13.328;2024-02-15T11:47:39;12.70;99.90
47576;DHT22;33304;52.456;13.328;2024-02-15T11:50:09;12.80;99.90
47576;DHT22;33304;52.456;13.328;2024-02-15T11:52:38;12.60;99.90
47576;DHT22;33304;52.456;13.328;2024-02-15T11:55:07;12.60;99.90
47576;DHT22;33304;52.456;13.328;2024-02-15T11:57:37;12.60;99.90
47576;DHT22;33304;52.456;13.328;2024-02-15T12:00:21;12.50;99.90
47576;DHT22;33304;52.456;13.328;2024-02-15T12:03:06;12.60;99.90
47576;DHT22;33304;52.456;13.328;2024-02-15T12:05:51;12.60;99.90
47576;DHT22;33304;52.456;13.328;2024-02-15T12:08:37;12.60;99.90
47576;DHT22;33304;52.456;13.328;2024-02-15T12:11:22;12.60;99.90
47576;DHT22;33304;52.456;13.328;2024-02-15T12:14:12;12.60;99.90
47576;DHT22;33304;52.456;13.328;2024-02-15T12:17:01;12.60;99.90
47576;DHT22;33304;52.456;13.328;2024-02-15T12:19:47;12.60;99.90
47576;DHT22;33304;52.456;13.328;2024-02-15T12:22:16;12.60;99.90
47576;DHT22;33304;52.456;13.328;2024-02-15T12:24:43;12.70;99.90
47576;DHT22;33304;52.456;13.328;2024-02-15T12:27:10;12.80;99.90
47576;DHT22;33304;52.456;13.328;2024-02-15T12:29:41;12.90;99.90
47576;DHT22;33304;52.456;13.328;2024-02-15T12:32:08;12.90;99.90
47576;DHT22;33304;52.456;13.328;2024-02-15T12:34:35;13.00;99.90
47576;DHT22;33304;52.456;13.328;2024-02-15T12:37:05;12.90;99.90
47576;DHT22;33304;52.456;13.328;2024-02-15T12:39:34;12.90;99.90
47576;DHT22;33304;52.456;13.328;2024-02-15T12:42:02;12.90;99.90
47576;DHT22;33304;52.456;13.328;2024-02-15T12:44:33;13.10;99.90
47576;DHT22;33304;52.456;13.328;2024-02-15T12:47:02;13.30;99.90
47576;DHT22;33304;52.456;13.328;2024-02-15T12:49:31;13.40;99.90
47576;DHT22;33304;52.456;13.328;2024-02-15T12:52:35;13.20;99.90
47576;DHT22;33304;52.456;13.328;2024-02-15T12:55:13;13.30;99.90
47576;DHT22;33304;52.456;13.328;2024-02-15T12:57:42;13.40;99.90
47576;DHT22;33304;52.456;13.328;2024-02-15T13:00:11;13.50;98.80
47576;DHT22;33304;52.456;13.328;2024-02-15T13:02:45;13.30;99.90
47576;DHT22;33304;52.456;13.328;2024-02-15T13:05:14;13.30;99.90
47576;DHT22;33304;52.456;13.328;2024-02-15T13:07:44;13.60;98.80
47576;DHT22;33304;52.456;13.328;2024-02-15T13:10:12;13.50;95.60
47576;DHT22;33304;52.456;13.328;2024-02-15T13:12:41;13.50;96.90
47576;DHT22;33304;52.456;13.328;2024-02-15T13:15:10;13.70;95.10
47576;DHT22;33304;52.456;13.328;2024-02-15T13:17:42;13.70;93.00
47576;DHT22;33304;52.456;13.328;2024-02-15T13:20:12;13.90;90.00
47576;DHT22;33304;52.456;13.328;2024-02-15T13:22:40;13.90;84.90
47576;DHT22;33304;52.456;13.328;2024-02-15T13:25:09;13.70;88.40
47576;DHT22;33304;52.456;13.328;2024-02-15T13:27:36;13.50;91.20
47576;DHT22;33304;52.456;13.328;2024-02-15T13:30:05;13.60;91.30
47576;DHT22;33304;52.456;13.328;2024-02-15T13:32:35;13.80;89.90
47576;DHT22;33304;52.456;13.328;2024-02-15T13:35:04;13.80;90.20
47576;DHT22;33304;52.456;13.328;2024-02-15T13:37:41;13.80;89.90
47576;DHT22;33304;52.456;13.328;2024-02-15T13:40:13;13.60;91.10
47576;DHT22;33304;52.456;13.328;2024-02-15T13:42:42;13.60;92.10
47576;DHT22;33304;52.456;13.328;2024-02-15T13:45:15;13.60;92.10
47576;DHT22;33304;52.456;13.328;2024-02-15T13:47:44;13.60;91.50
47576;DHT22;33304;52.456;13.328;2024-02-15T13:50:13;13.70;91.10
47576;DHT22;33304;52.456;13.328;2024-02-15T13:52:43;13.60;90.20
47576;DHT22;33304;52.456;13.328;2024-02-15T13:55:11;13.80;91.00
47576;DHT22;33304;52.456;13.328;2024-02-15T13:57:40;13.90;88.50
47576;DHT22;33304;52.456;13.328;2024-02-15T14:00:09;13.90;86.50
47576;DHT22;33304;52.456;13.328;2024-02-15T14:02:40;13.90;87.40
47576;DHT22;33304;52.456;13.328;2024-02-15T14:05:09;13.80;89.90
47576;DHT22;33304;52.456;13.328;2024-02-15T14:07:37;13.70;91.60
47576;DHT22;33304;52.456;13.328;2024-02-15T14:10:07;13.90;92.50
47576;DHT22;33304;52.456;13.328;2024-02-15T14:12:34;14.00;86.30
47576;DHT22;33304;52.456;13.328;2024-02-15T14:15:02;13.90;87.00
47576;DHT22;33304;52.456;13.328;2024-02-15T14:17:31;13.70;90.70
47576;DHT22;33304;52.456;13.328;2024-02-15T14:19:58;13.60;92.20
47576;DHT22;33304;52.456;13.328;2024-02-15T14:22:27;13.70;92.40
47576;DHT22;33304;52.456;13.328;2024-02-15T14:24:55;13.70;92.20
47576;DHT22;33304;52.456;13.328;2024-02-15T14:27:23;13.70;92.40
47576;DHT22;33304;52.456;13.328;2024-02-15T14:29:51;13.80;92.60
47576;DHT22;33304;52.456;13.328;2024-02-15T14:32:35;13.80;91.70
47576;DHT22;33304;52.456;13.328;2024-02-15T14:35:20;13.70;91.20
47576;DHT22;33304;52.456;13.328;2024-02-15T14:37:47;13.70;92.40
47576;DHT22;33304;52.456;13.328;2024-02-15T14:40:14;13.60;92.90
47576;DHT22;33304;52.456;13.328;2024-02-15T14:42:44;13.60;92.10
47576;DHT22;33304;52.456;13.328;2024-02-15T14:45:11;13.60;92.20
47576;DHT22;33304;52.456;13.328;2024-02-15T14:47:39;13.60;94.40
47576;DHT22;33304;52.456;13.328;2024-02-15T14:50:09;13.60;94.40
47576;DHT22;33304;52.456;13.328;2024-02-15T14:52:38;13.80;93.40
47576;DHT22;33304;52.456;13.328;2024-02-15T14:55:06;13.60;94.30
47576;DHT22;33304;52.456;13.328;2024-02-15T14:57:34;13.50;96.50
47576;DHT22;33304;52.456;13.328;2024-02-15T15:00:06;13.40;97.50
47576;DHT22;33304;52.456;13.328;2024-02-15T15:02:37;13.40;98.70
47576;DHT22;33304;52.456;13.328;2024-02-15T15:05:05;13.40;99.90
47576;DHT22;33304;52.456;13.328;2024-02-15T15:07:49;13.40;99.90
47576;DHT22;33304;52.456;13.328;2024-02-15T15:10:34;13.30;99.90
47576;DHT22;33304;52.456;13.328;2024-02-15T15:13:19;13.40;99.90
47576;DHT22;33304;52.456;13.328;2024-02-15T15:15:48;13.30;99.90
47576;DHT22;33304;52.456;13.328;2024-02-15T15:18:15;13.30;99.90
47576;DHT22;33304;52.456;13.328;2024-02-15T15:20:43;13.40;99.90
47576;DHT22;33304;52.456;13.328;2024-02-15T15:23:10;13.40;99.90
47576;DHT22;33304;52.456;13.328;2024-02-15T15:25:39;13.30;99.90
47576;DHT22;33304;52.456;13.328;2024-02-15T15:28:06;13.30;99.90
47576;DHT22;33304;52.456;13.328;2024-02-15T15:30:33;13.30;99.90
47576;DHT22;33304;52.456;13.328;2024-02-15T15:33:03;13.20;99.90
47576;DHT22;33304;52.456;13.328;2024-02-15T15:35:31;13.20;99.90
47576;DHT22;33304;52.456;13.328;2024-02-15T15:37:58;13.20;99.90
47576;DHT22;33304;52.456;13.328;2024-02-15T15:40:26;13.20;99.90
47576;DHT22;33304;52.456;13.328;2024-02-15T15:42:53;13.10;99.90